sensor_id;sensor_type;location;lat;lon;timestamp;temperature;humidity
3268;DHT22;1646;52.450;13.326;2023-04-03T00:01:46;3.80;99.90
3268;DHT22;1646;52.450;13.326;2023-04-03T00:06:44;3.80;99.90
3268;DHT22;1646;52.450;13.326;2023-04-03T00:11:43;3.70;99.90
3268;DHT22;1646;52.450;13.326;2023-04-03T00:16:41;3.60;99.90
3268;DHT22;1646;52.450;13.326;2023-04-03T00:21:40;3.60;99.90
3268;DHT22;1646;52.450;13.326;2023-04-03T00:26:39;3.60;99.90
3268;DHT22;1646;52.450;13.326;2023-04-03T00:31:37;3.60;99.90
3268;DHT22;1646;52.450;13.326;2023-04-03T00:36:35;3.60;99.90
3268;DHT22;1646;52.450;13.326;2023-04-03T00:41:35;3.70;99.90
3268;DHT22;1646;52.450;13.326;2023-04-03T00:46:33;3.60;99.90
3268;DHT22;1646;52.450;13.326;2023-04-03T00:51:32;3.60;99.90
3268;DHT22;1646;52.450;13.326;2023-04-03T00:56:31;3.70;99.90
3268;DHT22;1646;52.450;13.326;2023-04-03T01:01:31;3.70;99.90
3268;DHT22;1646;52.450;13.326;2023-04-03T01:06:32;3.60;99.90
3268;DHT22;1646;52.450;13.326;2023-04-03T01:11:35;3.60;99.90
3268;DHT22;1646;52.450;13.326;2023-04-03T01:16:35;3.60;99.90
3268;DHT22;1646;52.450;13.326;2023-04-03T01:22:06;3.50;99.90
3268;DHT22;1646;52.450;13.326;2023-04-03T01:27:14;3.50;99.90
3268;DHT22;1646;52.450;13.326;2023-04-03T01:32:14;3.60;99.90
3268;DHT22;1646;52.450;13.326;2023-04-03T01:37:12;3.60;99.90
3268;DHT22;1646;52.450;13.326;2023-04-03T01:42:10;3.60;99.90
3268;DHT22;1646;52.450;13.326;2023-04-03T01:47:14;3.70;99.90
3268;DHT22;1646;52.450;13.326;2023-04-03T01:52:12;3.60;99.90
3268;DHT22;1646;52.450;13.326;2023-04-03T01:57:10;3.50;99.90
3268;DHT22;1646;52.450;13.326;2023-04-03T02:02:11;3.50;99.90
3268;DHT22;1646;52.450;13.326;2023-04-03T02:07:12;3.50;99.90
3268;DHT22;1646;52.450;13.326;2023-04-03T02:12:11;3.50;99.90
3268;DHT22;1646;52.450;13.326;2023-04-03T02:17:09;3.50;99.90
3268;DHT22;1646;52.450;13.326;2023-04-03T02:22:07;3.50;99.90
3268;DHT22;1646;52.450;13.326;2023-04-03T02:27:07;3.50;99.90
3268;DHT22;1646;52.450;13.326;2023-04-03T02:32:05;3.50;99.90
3268;DHT22;1646;52.450;13.326;2023-04-03T02:37:05;3.40;99.90
3268;DHT22;1646;52.450;13.326;2023-04-03T02:42:03;3.40;99.90
3268;DHT22;1646;52.450;13.326;2023-04-03T02:47:04;3.40;99.90
3268;DHT22;1646;52.450;13.326;2023-04-03T02:52:03;3.40;99.90
3268;DHT22;1646;52.450;13.326;2023-04-03T02:57:01;3.40;99.90
3268;DHT22;1646;52.450;13.326;2023-04-03T03:01:59;3.30;99.90
3268;DHT22;1646;52.450;13.326;2023-04-03T03:06:59;3.30;99.90
3268;DHT22;1646;52.450;13.326;2023-04-03T03:11:58;3.30;99.90
3268;DHT22;1646;52.450;13.326;2023-04-03T03:16:56;3.30;99.90
3268;DHT22;1646;52.450;13.326;2023-04-03T03:21:54;3.30;99.90
3268;DHT22;1646;52.450;13.326;2023-04-03T03:26:55;3.30;99.90
3268;DHT22;1646;52.450;13.326;2023-04-03T03:31:53;3.30;99.90
3268;DHT22;1646;52.450;13.326;2023-04-03T03:36:52;3.30;99.90
3268;DHT22;1646;52.450;13.326;2023-04-03T03:41:50;3.20;99.90
3268;DHT22;1646;52.450;13.326;2023-04-03T03:46:52;3.10;99.90
3268;DHT22;1646;52.450;13.326;2023-04-03T03:51:50;3.10;99.90
3268;DHT22;1646;52.450;13.326;2023-04-03T03:56:49;3.00;99.90
3268;DHT22;1646;52.450;13.326;2023-04-03T04:01:48;3.00;99.90
3268;DHT22;1646;52.450;13.326;2023-04-03T04:06:48;3.00;99.90
3268;DHT22;1646;52.450;13.326;2023-04-03T04:11:46;3.00;99.90
3268;DHT22;1646;52.450;13.326;2023-04-03T04:16:46;3.00;99.90
3268;DHT22;1646;52.450;13.326;2023-04-03T04:21:53;2.90;99.90
3268;DHT22;1646;52.450;13.326;2023-04-03T04:26:51;3.00;99.90
3268;DHT22;1646;52.450;13.326;2023-04-03T04:31:51;2.90;99.90
3268;DHT22;1646;52.450;13.326;2023-04-03T04:36:52;2.90;99.90
3268;DHT22;1646;52.450;13.326;2023-04-03T04:41:51;2.90;99.90
3268;DHT22;1646;52.450;13.326;2023-04-03T04:46:50;2.80;99.90
3268;DHT22;1646;52.450;13.326;2023-04-03T04:51:49;2.80;99.90
3268;DHT22;1646;52.450;13.326;2023-04-03T04:56:56;2.90;99.90
3268;DHT22;1646;52.450;13.326;2023-04-03T05:01:56;2.90;99.90
3268;DHT22;1646;52.450;13.326;2023-04-03T05:06:55;2.90;99.90
3268;DHT22;1646;52.450;13.326;2023-04-03T05:11:58;3.00;99.90
3268;DHT22;1646;52.450;13.326;2023-04-03T05:17:01;3.10;99.90
3268;DHT22;1646;52.450;13.326;2023-04-03T05:22:03;3.00;99.90
3268;DHT22;1646;52.450;13.326;2023-04-03T05:27:03;3.10;99.90
3268;DHT22;1646;52.450;13.326;2023-04-03T05:32:06;3.10;99.90
3268;DHT22;1646;52.450;13.326;2023-04-03T05:37:04;3.10;99.90
3268;DHT22;1646;52.450;13.326;2023-04-03T05:42:04;3.20;99.90
3268;DHT22;1646;52.450;13.326;2023-04-03T05:47:03;3.30;99.90
3268;DHT22;1646;52.450;13.326;2023-04-03T05:52:02;3.30;99.90
3268;DHT22;1646;52.450;13.326;2023-04-03T05:57:03;3.40;99.90
3268;DHT22;1646;52.450;13.326;2023-04-03T06:02:02;3.60;99.90
3268;DHT22;1646;52.450;13.326;2023-04-03T06:07:00;3.70;99.90
3268;DHT22;1646;52.450;13.326;2023-04-03T06:11:59;3.80;99.90
3268;DHT22;1646;52.450;13.326;2023-04-03T06:17:00;3.90;99.90
3268;DHT22;1646;52.450;13.326;2023-04-03T06:21:59;4.10;99.90
3268;DHT22;1646;52.450;13.326;2023-04-03T06:26:58;4.20;99.90
3268;DHT22;1646;52.450;13.326;2023-04-03T06:31:56;4.40;99.90
3268;DHT22;1646;52.450;13.326;2023-04-03T06:36:56;4.30;99.90
3268;DHT22;1646;52.450;13.326;2023-04-03T06:41:54;4.40;99.90
3268;DHT22;1646;52.450;13.326;2023-04-03T06:47:02;4.60;99.90
3268;DHT22;1646;52.450;13.326;2023-04-03T06:52:02;4.70;99.90
3268;DHT22;1646;52.450;13.326;2023-04-03T06:57:02;4.90;99.90
3268;DHT22;1646;52.450;13.326;2023-04-03T07:02:00;5.00;99.90
3268;DHT22;1646;52.450;13.326;2023-04-03T07:06:58;5.20;99.90
3268;DHT22;1646;52.450;13.326;2023-04-03T07:11:58;5.30;99.90
3268;DHT22;1646;52.450;13.326;2023-04-03T07:16:56;5.50;99.90
3268;DHT22;1646;52.450;13.326;2023-04-03T07:21:55;5.60;99.90
3268;DHT22;1646;52.450;13.326;2023-04-03T07:26:53;5.80;99.90
3268;DHT22;1646;52.450;13.326;2023-04-03T07:31:53;6.10;99.90
3268;DHT22;1646;52.450;13.326;2023-04-03T07:36:52;6.30;99.90
3268;DHT22;1646;52.450;13.326;2023-04-03T07:41:50;6.30;99.90
3268;DHT22;1646;52.450;13.326;2023-04-03T07:46:48;6.20;99.90
3268;DHT22;1646;52.450;13.326;2023-04-03T07:51:48;6.50;99.90
3268;DHT22;1646;52.450;13.326;2023-04-03T07:56:47;6.60;99.90
3268;DHT22;1646;52.450;13.326;2023-04-03T08:01:46;6.60;99.90
3268;DHT22;1646;52.450;13.326;2023-04-03T08:06:44;6.50;99.90
3268;DHT22;1646;52.450;13.326;2023-04-03T08:11:44;6.40;99.90
3268;DHT22;1646;52.450;13.326;2023-04-03T08:16:43;6.30;99.90
3268;DHT22;1646;52.450;13.326;2023-04-03T08:21:41;6.40;99.90
3268;DHT22;1646;52.450;13.326;2023-04-03T08:26:39;6.40;99.90
3268;DHT22;1646;52.450;13.326;2023-04-03T08:31:39;6.70;99.90
3268;DHT22;1646;52.450;13.326;2023-04-03T08:36:37;6.60;99.90
3268;DHT22;1646;52.450;13.326;2023-04-03T08:41:37;6.60;99.90
3268;DHT22;1646;52.450;13.326;2023-04-03T08:46:46;6.50;99.90
3268;DHT22;1646;52.450;13.326;2023-04-03T08:51:47;6.40;99.90
3268;DHT22;1646;52.450;13.326;2023-04-03T08:56:46;6.50;99.90
3268;DHT22;1646;52.450;13.326;2023-04-03T09:01:46;6.50;99.90
3268;DHT22;1646;52.450;13.326;2023-04-03T09:06:49;6.40;99.90
3268;DHT22;1646;52.450;13.326;2023-04-03T09:11:55;6.30;99.90
3268;DHT22;1646;52.450;13.326;2023-04-03T09:17:00;6.20;99.90
3268;DHT22;1646;52.450;13.326;2023-04-03T09:22:01;6.20;99.90
3268;DHT22;1646;52.450;13.326;2023-04-03T09:27:04;6.80;99.90
3268;DHT22;1646;52.450;13.326;2023-04-03T09:32:19;9.50;99.90
3268;DHT22;1646;52.450;13.326;2023-04-03T09:37:36;13.20;93.60
3268;DHT22;1646;52.450;13.326;2023-04-03T09:42:40;14.70;86.90
3268;DHT22;1646;52.450;13.326;2023-04-03T09:47:45;13.80;74.70
3268;DHT22;1646;52.450;13.326;2023-04-03T09:52:46;11.90;76.40
3268;DHT22;1646;52.450;13.326;2023-04-03T09:57:45;11.70;77.90
3268;DHT22;1646;52.450;13.326;2023-04-03T10:02:53;12.50;77.70
3268;DHT22;1646;52.450;13.326;2023-04-03T10:07:52;12.10;72.90
3268;DHT22;1646;52.450;13.326;2023-04-03T10:13:06;11.30;71.00
3268;DHT22;1646;52.450;13.326;2023-04-03T10:18:31;10.20;75.80
3268;DHT22;1646;52.450;13.326;2023-04-03T10:23:36;9.60;79.30
3268;DHT22;1646;52.450;13.326;2023-04-03T10:28:45;9.10;79.00
3268;DHT22;1646;52.450;13.326;2023-04-03T10:33:56;8.90;83.30
3268;DHT22;1646;52.450;13.326;2023-04-03T10:39:02;8.80;83.00
3268;DHT22;1646;52.450;13.326;2023-04-03T10:44:11;9.10;81.70
3268;DHT22;1646;52.450;13.326;2023-04-03T10:49:22;9.30;79.60
3268;DHT22;1646;52.450;13.326;2023-04-03T10:54:25;8.90;80.30
3268;DHT22;1646;52.450;13.326;2023-04-03T10:59:27;8.80;79.40
3268;DHT22;1646;52.450;13.326;2023-04-03T11:04:34;8.80;80.40
3268;DHT22;1646;52.450;13.326;2023-04-03T11:09:34;9.70;81.00
3268;DHT22;1646;52.450;13.326;2023-04-03T11:14:38;10.00;75.00
3268;DHT22;1646;52.450;13.326;2023-04-03T11:19:50;9.60;77.30
3268;DHT22;1646;52.450;13.326;2023-04-03T11:24:59;9.30;79.40
3268;DHT22;1646;52.450;13.326;2023-04-03T11:30:00;9.60;81.70
3268;DHT22;1646;52.450;13.326;2023-04-03T11:35:01;9.90;81.10
3268;DHT22;1646;52.450;13.326;2023-04-03T11:40:02;9.80;80.10
3268;DHT22;1646;52.450;13.326;2023-04-03T11:45:27;9.60;81.30
3268;DHT22;1646;52.450;13.326;2023-04-03T11:50:43;9.50;80.80
3268;DHT22;1646;52.450;13.326;2023-04-03T11:56:03;9.50;78.70
3268;DHT22;1646;52.450;13.326;2023-04-03T12:01:09;9.20;79.20
3268;DHT22;1646;52.450;13.326;2023-04-03T12:11:55;8.90;81.00
3268;DHT22;1646;52.450;13.326;2023-04-03T12:16:55;9.00;82.10
3268;DHT22;1646;52.450;13.326;2023-04-03T12:22:12;9.10;81.10
3268;DHT22;1646;52.450;13.326;2023-04-03T12:27:23;9.00;81.20
3268;DHT22;1646;52.450;13.326;2023-04-03T12:32:45;8.70;82.00
3268;DHT22;1646;52.450;13.326;2023-04-03T12:38:28;8.50;82.80
3268;DHT22;1646;52.450;13.326;2023-04-03T12:43:43;8.60;83.90
3268;DHT22;1646;52.450;13.326;2023-04-03T12:48:50;8.70;83.70
3268;DHT22;1646;52.450;13.326;2023-04-03T12:53:56;8.30;83.40
3268;DHT22;1646;52.450;13.326;2023-04-03T12:59:13;8.10;84.50
3268;DHT22;1646;52.450;13.326;2023-04-03T13:04:12;8.00;86.40
3268;DHT22;1646;52.450;13.326;2023-04-03T13:09:20;8.20;84.70
3268;DHT22;1646;52.450;13.326;2023-04-03T13:14:24;8.30;81.30
3268;DHT22;1646;52.450;13.326;2023-04-03T13:19:30;8.30;82.30
3268;DHT22;1646;52.450;13.326;2023-04-03T13:24:29;8.40;84.70
3268;DHT22;1646;52.450;13.326;2023-04-03T13:29:33;8.40;83.50
3268;DHT22;1646;52.450;13.326;2023-04-03T13:34:36;8.50;83.30
3268;DHT22;1646;52.450;13.326;2023-04-03T13:39:38;8.40;82.20
3268;DHT22;1646;52.450;13.326;2023-04-03T13:44:37;8.30;83.00
3268;DHT22;1646;52.450;13.326;2023-04-03T13:49:38;8.20;84.10
3268;DHT22;1646;52.450;13.326;2023-04-03T13:54:38;8.20;86.70
3268;DHT22;1646;52.450;13.326;2023-04-03T13:59:38;8.20;85.20
3268;DHT22;1646;52.450;13.326;2023-04-03T14:04:47;8.10;85.70
3268;DHT22;1646;52.450;13.326;2023-04-03T14:09:46;8.10;84.40
3268;DHT22;1646;52.450;13.326;2023-04-03T14:14:46;7.90;85.60
3268;DHT22;1646;52.450;13.326;2023-04-03T14:19:45;7.70;85.70
3268;DHT22;1646;52.450;13.326;2023-04-03T14:24:43;7.50;85.00
3268;DHT22;1646;52.450;13.326;2023-04-03T14:29:43;7.60;86.20
3268;DHT22;1646;52.450;13.326;2023-04-03T14:34:43;7.80;86.90
3268;DHT22;1646;52.450;13.326;2023-04-03T14:39:42;7.90;85.70
3268;DHT22;1646;52.450;13.326;2023-04-03T14:44:41;8.00;84.40
3268;DHT22;1646;52.450;13.326;2023-04-03T14:49:40;7.90;81.70
3268;DHT22;1646;52.450;13.326;2023-04-03T14:54:39;7.70;82.60
3268;DHT22;1646;52.450;13.326;2023-04-03T14:59:38;8.30;86.70
3268;DHT22;1646;52.450;13.326;2023-04-03T15:04:37;8.80;86.30
3268;DHT22;1646;52.450;13.326;2023-04-03T15:09:35;8.80;83.80
3268;DHT22;1646;52.450;13.326;2023-04-03T15:14:36;8.60;84.60
3268;DHT22;1646;52.450;13.326;2023-04-03T15:19:39;8.40;86.00
3268;DHT22;1646;52.450;13.326;2023-04-03T15:24:37;8.20;86.70
3268;DHT22;1646;52.450;13.326;2023-04-03T15:29:38;7.90;88.40
3268;DHT22;1646;52.450;13.326;2023-04-03T15:34:37;7.80;90.30
3268;DHT22;1646;52.450;13.326;2023-04-03T15:39:35;7.70;90.30
3268;DHT22;1646;52.450;13.326;2023-04-03T15:44:34;7.80;90.80
3268;DHT22;1646;52.450;13.326;2023-04-03T15:49:34;7.50;91.90
3268;DHT22;1646;52.450;13.326;2023-04-03T15:54:32;7.30;91.80
3268;DHT22;1646;52.450;13.326;2023-04-03T15:59:31;7.30;91.90
3268;DHT22;1646;52.450;13.326;2023-04-03T16:04:30;7.10;91.30
3268;DHT22;1646;52.450;13.326;2023-04-03T16:09:29;7.10;91.60
3268;DHT22;1646;52.450;13.326;2023-04-03T16:14:28;7.00;91.10
3268;DHT22;1646;52.450;13.326;2023-04-03T16:19:27;6.80;91.00
3268;DHT22;1646;52.450;13.326;2023-04-03T16:24:26;6.70;91.50
3268;DHT22;1646;52.450;13.326;2023-04-03T16:29:26;6.70;91.90
3268;DHT22;1646;52.450;13.326;2023-04-03T16:34:24;6.70;92.20
3268;DHT22;1646;52.450;13.326;2023-04-03T16:39:23;6.90;92.30
3268;DHT22;1646;52.450;13.326;2023-04-03T16:44:21;9.00;93.20
3268;DHT22;1646;52.450;13.326;2023-04-03T16:49:21;11.80;90.20
3268;DHT22;1646;52.450;13.326;2023-04-03T16:54:19;14.20;90.30
3268;DHT22;1646;52.450;13.326;2023-04-03T16:59:18;14.70;83.70
3268;DHT22;1646;52.450;13.326;2023-04-03T17:04:17;13.20;79.80
3268;DHT22;1646;52.450;13.326;2023-04-03T17:09:17;11.20;79.00
3268;DHT22;1646;52.450;13.326;2023-04-03T17:14:17;9.80;82.80
3268;DHT22;1646;52.450;13.326;2023-04-03T17:19:16;8.60;84.40
3268;DHT22;1646;52.450;13.326;2023-04-03T17:24:16;7.90;87.30
3268;DHT22;1646;52.450;13.326;2023-04-03T17:29:15;7.60;87.70
3268;DHT22;1646;52.450;13.326;2023-04-03T17:34:13;7.20;89.20
3268;DHT22;1646;52.450;13.326;2023-04-03T17:39:11;7.00;90.00
3268;DHT22;1646;52.450;13.326;2023-04-03T17:44:11;6.80;90.80
3268;DHT22;1646;52.450;13.326;2023-04-03T17:49:09;6.70;91.40
3268;DHT22;1646;52.450;13.326;2023-04-03T17:54:11;6.60;92.00
3268;DHT22;1646;52.450;13.326;2023-04-03T17:59:11;6.40;92.50
3268;DHT22;1646;52.450;13.326;2023-04-03T18:04:09;6.40;92.90
3268;DHT22;1646;52.450;13.326;2023-04-03T18:09:11;6.30;93.10
3268;DHT22;1646;52.450;13.326;2023-04-03T18:14:14;6.30;93.40
3268;DHT22;1646;52.450;13.326;2023-04-03T18:19:13;6.30;94.20
3268;DHT22;1646;52.450;13.326;2023-04-03T18:24:17;6.20;94.40
3268;DHT22;1646;52.450;13.326;2023-04-03T18:29:17;6.10;94.80
3268;DHT22;1646;52.450;13.326;2023-04-03T18:34:15;6.10;95.50
3268;DHT22;1646;52.450;13.326;2023-04-03T18:39:13;6.10;95.40
3268;DHT22;1646;52.450;13.326;2023-04-03T18:44:13;6.30;95.30
3268;DHT22;1646;52.450;13.326;2023-04-03T18:49:14;6.10;96.00
3268;DHT22;1646;52.450;13.326;2023-04-03T18:54:14;6.10;95.50
3268;DHT22;1646;52.450;13.326;2023-04-03T18:59:12;6.10;95.90
3268;DHT22;1646;52.450;13.326;2023-04-03T19:04:10;6.10;96.30
3268;DHT22;1646;52.450;13.326;2023-04-03T19:09:10;6.00;96.40
3268;DHT22;1646;52.450;13.326;2023-04-03T19:14:08;6.00;97.30
3268;DHT22;1646;52.450;13.326;2023-04-03T19:19:13;5.80;97.10
3268;DHT22;1646;52.450;13.326;2023-04-03T19:24:12;5.90;97.70
3268;DHT22;1646;52.450;13.326;2023-04-03T19:29:11;5.70;98.10
3268;DHT22;1646;52.450;13.326;2023-04-03T19:34:09;5.60;98.40
3268;DHT22;1646;52.450;13.326;2023-04-03T19:39:07;5.60;99.30
3268;DHT22;1646;52.450;13.326;2023-04-03T19:44:07;5.60;99.90
3268;DHT22;1646;52.450;13.326;2023-04-03T19:49:06;5.60;99.90
3268;DHT22;1646;52.450;13.326;2023-04-03T19:54:04;5.70;99.90
3268;DHT22;1646;52.450;13.326;2023-04-03T19:59:02;5.60;99.90
3268;DHT22;1646;52.450;13.326;2023-04-03T20:04:02;5.60;99.90
3268;DHT22;1646;52.450;13.326;2023-04-03T20:09:00;5.50;99.90
3268;DHT22;1646;52.450;13.326;2023-04-03T20:13:59;5.50;99.90
3268;DHT22;1646;52.450;13.326;2023-04-03T20:18:57;5.40;99.90
3268;DHT22;1646;52.450;13.326;2023-04-03T20:24:01;5.50;99.90
3268;DHT22;1646;52.450;13.326;2023-04-03T20:29:00;5.50;99.90
3268;DHT22;1646;52.450;13.326;2023-04-03T20:33:59;5.50;99.90
3268;DHT22;1646;52.450;13.326;2023-04-03T20:38:58;5.50;99.90
3268;DHT22;1646;52.450;13.326;2023-04-03T20:43:58;5.50;99.90
3268;DHT22;1646;52.450;13.326;2023-04-03T20:48:56;5.50;99.90
3268;DHT22;1646;52.450;13.326;2023-04-03T20:53:55;5.40;99.90
3268;DHT22;1646;52.450;13.326;2023-04-03T20:58:53;5.30;99.90
3268;DHT22;1646;52.450;13.326;2023-04-03T21:03:57;5.30;99.90
3268;DHT22;1646;52.450;13.326;2023-04-03T21:20:11;5.10;99.90
3268;DHT22;1646;52.450;13.326;2023-04-03T21:25:09;4.90;99.90
3268;DHT22;1646;52.450;13.326;2023-04-03T21:30:09;4.90;99.90
3268;DHT22;1646;52.450;13.326;2023-04-03T21:35:07;5.00;99.90
3268;DHT22;1646;52.450;13.326;2023-04-03T21:40:07;4.90;99.90
3268;DHT22;1646;52.450;13.326;2023-04-03T21:45:06;4.80;99.90
3268;DHT22;1646;52.450;13.326;2023-04-03T21:50:06;4.70;99.90
3268;DHT22;1646;52.450;13.326;2023-04-03T21:55:07;4.70;99.90
3268;DHT22;1646;52.450;13.326;2023-04-03T22:00:06;4.60;99.90
3268;DHT22;1646;52.450;13.326;2023-04-03T22:05:07;4.60;99.90
3268;DHT22;1646;52.450;13.326;2023-04-03T22:10:07;4.50;99.90
3268;DHT22;1646;52.450;13.326;2023-04-03T22:15:07;4.40;99.90
3268;DHT22;1646;52.450;13.326;2023-04-03T22:20:07;4.40;99.90
3268;DHT22;1646;52.450;13.326;2023-04-03T22:25:07;4.20;99.90
3268;DHT22;1646;52.450;13.326;2023-04-03T22:30:07;4.20;99.90
3268;DHT22;1646;52.450;13.326;2023-04-03T22:35:06;4.20;99.90
3268;DHT22;1646;52.450;13.326;2023-04-03T22:40:07;4.20;99.90
3268;DHT22;1646;52.450;13.326;2023-04-03T22:45:06;4.10;99.90
3268;DHT22;1646;52.450;13.326;2023-04-03T22:50:05;3.90;99.90
3268;DHT22;1646;52.450;13.326;2023-04-03T22:55:04;3.90;99.90
3268;DHT22;1646;52.450;13.326;2023-04-03T23:00:17;3.80;99.90
3268;DHT22;1646;52.450;13.326;2023-04-03T23:05:16;3.80;99.90
3268;DHT22;1646;52.450;13.326;2023-04-03T23:10:14;3.80;99.90
3268;DHT22;1646;52.450;13.326;2023-04-03T23:15:13;3.80;99.90
3268;DHT22;1646;52.450;13.326;2023-04-03T23:20:14;3.70;99.90
3268;DHT22;1646;52.450;13.326;2023-04-03T23:25:13;3.70;99.90
3268;DHT22;1646;52.450;13.326;2023-04-03T23:30:11;3.70;99.90
3268;DHT22;1646;52.450;13.326;2023-04-03T23:35:10;3.50;99.90
3268;DHT22;1646;52.450;13.326;2023-04-03T23:40:11;3.40;99.90
3268;DHT22;1646;52.450;13.326;2023-04-03T23:45:09;3.40;99.90
3268;DHT22;1646;52.450;13.326;2023-04-03T23:50:09;3.50;99.90
3268;DHT22;1646;52.450;13.326;2023-04-03T23:55:07;3.40;99.90
